Latest Weather Observations for Mount Boyce

IDN60901

Issued at 8:11 am EDT Wednesday 22 November 2017 (issued every 10 minutes, with the page automatically refreshed every 10 minutes)

About weather observations | Map of Sydney area stations | Latest observations for Sydney area | Other Formats
Station Details ID: 063292 Name: MOUNT BOYCE AWS Lat: -33.62 Lon: 150.27 Height: 1080.0 m
Data from the previous 72 hours. | See also: Recent months at Mount Boyce
Date/Time
EDT
Temp
°C
App
Temp
°C
Dew
Point
°C
Rel
Hum
%
Delta-T
°C
Wind Press
QNH
hPa
Press
MSL
hPa
Rain since
9am
mm
Dir  Spd
km/h
Gust
km/h
Spd
kts
Gust
kts
22/08:00am 12.0 11.2 9.6 85 1.3 ENE 4 11 2 6 - - 0.2
22/07:58am 11.9 11.1 9.6 86 1.2 ENE 4 9 2 5 - - 0.2
22/07:30am 10.8 9.3 9.1 89 0.9 NE 7 13 4 7 - - 0.2
22/07:29am 10.9 9.6 9.2 89 0.9 NE 6 13 3 7 - - 0.2
22/07:22am 11.2 10.4 9.6 90 0.9 NE 4 11 2 6 - - 0.2
22/07:00am 11.0 9.9 9.8 92 0.6 NE 6 13 3 7 - - 0.2
22/06:30am 10.4 9.2 9.6 95 0.4 ENE 6 13 3 7 - - 0.2
22/06:00am 9.8 8.8 9.0 95 0.4 ENE 4 11 2 6 - - 0.2
22/05:30am 9.4 7.9 8.3 93 0.6 ENE 6 11 3 6 - - 0.2
22/05:00am 9.9 8.5 8.7 92 0.6 NE 6 13 3 7 - - 0.2
22/04:53am 10.1 8.7 9.0 93 0.6 ENE 6 13 3 7 - - 0.2
22/04:30am 10.0 8.6 8.9 93 0.6 ENE 6 13 3 7 - - 0.2
22/04:00am 9.9 8.3 8.7 92 0.6 ENE 7 13 4 7 - - 0.2
22/03:30am 10.1 8.5 8.9 92 0.6 ENE 7 19 4 10 - - 0.2
22/03:00am 10.2 8.7 9.1 93 0.6 ENE 7 15 4 8 - - 0.2
22/02:30am 10.3 8.4 9.2 93 0.6 ENE 9 17 5 9 - - 0.2
22/02:00am 10.1 8.5 8.9 92 0.6 ENE 7 15 4 8 - - 0.2
22/01:30am 10.1 8.7 8.7 91 0.7 ENE 6 13 3 7 - - 0.2
22/01:00am 10.7 8.9 9.3 91 0.7 ENE 9 19 5 10 - - 0.2
22/12:30am 10.8 9.6 9.4 91 0.7 ENE 6 15 3 8 - - 0.2
22/12:00am 10.8 9.4 9.6 92 0.6 ENE 7 17 4 9 - - 0.2
 
Date/Time
EDT
Temp
°C
App
Temp
°C
Dew
Point
°C
Rel
Hum
%
Delta-T
°C
Wind Press
QNH
hPa
Press
MSL
hPa
Rain since
9am
mm
Dir  Spd
km/h
Gust
km/h
Spd
kts
Gust
kts
21/11:30pm 10.7 8.9 9.3 91 0.7 ENE 9 17 5 9 - - 0.2
21/11:00pm 10.7 8.8 9.1 90 0.8 ENE 9 17 5 9 - - 0.2
21/10:30pm 10.7 8.8 9.1 90 0.8 ENE 9 17 5 9 - - 0.2
21/10:00pm 11.0 9.1 9.1 88 1.0 ENE 9 17 5 9 - - 0.2
21/09:30pm 11.3 9.1 9.4 88 1.0 ENE 11 20 6 11 - - 0.2
21/09:00pm 11.7 10.3 9.4 86 1.2 ENE 7 15 4 8 - - 0.2
21/08:30pm 11.9 10.1 9.3 84 1.4 E 9 17 5 9 - - 0.2
21/08:00pm 12.6 11.3 9.2 80 1.8 ENE 6 13 3 7 - - 0.2
21/07:30pm 13.8 12.3 9.0 73 2.6 E 7 17 4 9 - - 0.2
21/07:21pm 14.5 13.0 9.3 71 2.8 E 7 19 4 10 - - 0.2
21/07:00pm 15.3 13.2 9.7 69 3.1 E 11 22 6 12 - - 0.2
21/06:30pm 15.2 13.5 8.4 64 3.6 E 7 19 4 10 - - 0.2
21/06:00pm 16.3 13.6 7.3 55 4.7 E 11 22 6 12 - - 0.2
21/05:30pm 18.0 15.1 8.0 52 5.4 E 13 20 7 11 - - 0.2
21/05:00pm 18.8 16.4 8.7 52 5.5 E 11 20 6 11 - - 0.2
21/04:30pm 19.0 17.0 8.6 51 5.7 ENE 9 17 5 9 - - 0.2
21/04:00pm 17.9 15.2 7.3 50 5.6 E 11 19 6 10 - - 0.2
21/03:30pm 18.1 15.5 7.8 51 5.5 E 11 19 6 10 - - 0.2
21/03:00pm 18.2 15.5 9.0 55 5.1 E 13 28 7 15 - - 0.2
21/02:30pm 18.4 16.0 8.7 53 5.3 E 11 20 6 11 - - 0.2
21/02:00pm 17.1 14.5 7.7 54 5.0 ESE 11 20 6 11 - - 0.2
21/01:30pm 17.9 15.6 7.6 51 5.5 E 9 20 5 11 - - 0.2
21/01:00pm 17.8 15.6 9.4 58 4.6 E 11 20 6 11 - - 0.2
21/12:30pm 16.5 14.3 8.0 57 4.5 E 9 22 5 12 - - 0.2
21/12:00pm 15.8 12.8 6.0 52 5.0 ENE 11 19 6 10 - - 0.2
21/11:30am 16.2 14.1 8.2 59 4.3 ENE 9 22 5 12 - - 0.2
21/11:00am 14.7 13.1 8.6 67 3.3 ENE 7 13 4 7 - - 0.0
21/10:30am 13.9 11.7 7.7 66 3.2 E 9 19 5 10 - - 0.0
21/10:00am 14.3 12.2 8.3 67 3.2 E 9 17 5 9 - - 0.0
21/09:43am 13.7 11.7 8.7 72 2.7 E 9 17 5 9 - - 0.0
21/09:30am 13.8 11.4 8.8 72 2.7 ENE 11 20 6 11 - - 0.0
21/09:00am 12.1 10.2 8.9 81 1.7 ENE 9 20 5 11 - - 1.2
21/08:30am 11.6 9.5 8.3 80 1.7 ENE 9 19 5 10 - - 1.2
21/08:00am 10.7 9.1 8.8 88 1.0 E 7 17 4 9 - - 1.2
21/07:54am 10.9 9.4 9.2 89 0.9 E 7 17 4 9 - - 1.2
21/07:30am 10.3 7.9 8.7 90 0.8 ENE 11 19 6 10 - - 1.2
21/07:00am 9.9 8.3 8.8 93 0.6 E 7 17 4 9 - - 1.2
21/06:30am 9.5 8.0 8.6 94 0.5 ENE 6 15 3 8 - - 1.2
21/06:00am 9.4 7.9 8.5 94 0.5 ENE 6 13 3 7 - - 1.2
21/05:30am 9.4 7.9 8.5 94 0.5 E 6 11 3 6 - - 1.2
21/05:00am 9.4 7.9 8.5 94 0.5 E 6 9 3 5 - - 1.2
21/04:30am 9.4 7.9 8.5 94 0.5 E 6 11 3 6 - - 1.2
21/04:11am 9.5 8.8 8.6 94 0.5 E 2 6 1 3 - - 1.2
21/04:00am 9.4 7.9 8.5 94 0.5 ENE 6 9 3 5 - - 1.2
21/03:32am 9.4 7.9 8.5 94 0.5 E 6 9 3 5 - - 1.2
21/03:30am 9.4 7.9 8.5 94 0.5 E 6 11 3 6 - - 1.2
21/03:00am 9.3 8.1 8.1 92 0.6 E 4 9 2 5 - - 1.2
21/02:30am 9.8 8.4 8.7 93 0.6 E 6 13 3 7 - - 1.2
21/02:00am 9.9 8.5 8.8 93 0.6 E 6 13 3 7 - - 1.2
21/01:30am 9.9 8.5 8.8 93 0.6 ENE 6 13 3 7 - - 1.2
21/01:00am 10.2 8.9 9.1 93 0.6 E 6 15 3 8 - - 1.2
21/12:52am 10.2 8.9 9.1 93 0.6 E 6 17 3 9 - - 1.2
21/12:30am 10.3 8.5 9.4 94 0.5 ENE 9 19 5 10 - - 1.2
21/12:00am 10.5 8.7 9.6 94 0.5 ENE 9 15 5 8 - - 1.2
 
Date/Time
EDT
Temp
°C
App
Temp
°C
Dew
Point
°C
Rel
Hum
%
Delta-T
°C
Wind Press
QNH
hPa
Press
MSL
hPa
Rain since
9am
mm
Dir  Spd
km/h
Gust
km/h
Spd
kts
Gust
kts
20/11:30pm 10.7 9.5 9.6 93 0.6 E 6 11 3 6 - - 1.2
20/11:05pm 10.9 9.6 9.8 93 0.6 E 7 17 4 9 - - 1.2
20/11:00pm 10.9 9.6 9.8 93 0.6 E 7 13 4 7 - - 1.2
20/10:30pm 10.7 8.9 9.3 91 0.7 ENE 9 17 5 9 - - 1.2
20/10:00pm 11.1 9.0 9.9 92 0.6 ENE 11 19 6 10 - - 1.2
20/09:30pm 11.3 9.6 9.9 91 0.8 ENE 9 15 5 8 - - 1.2
20/09:00pm 11.6 10.0 10.2 91 0.8 ENE 9 15 5 8 - - 1.2
20/08:30pm 11.9 10.3 10.1 89 1.0 ENE 9 19 5 10 - - 1.2
20/08:00pm 12.5 11.0 10.6 88 1.0 ENE 9 19 5 10 - - 1.2
20/07:30pm 13.0 11.8 10.4 84 1.4 ENE 7 15 4 8 - - 1.2
20/07:00pm 13.7 11.9 10.7 82 1.7 ENE 11 22 6 12 - - 1.2
20/06:42pm 14.6 13.6 11.0 79 2.0 E 7 15 4 8 - - 1.2
20/06:38pm 14.8 14.0 11.2 79 2.0 E 6 15 3 8 - - 1.2
20/06:30pm 14.5 13.0 10.5 77 2.2 ENE 9 15 5 8 - - 1.2
20/06:23pm 15.1 13.6 10.7 75 2.5 E 9 20 5 11 - - 1.2
20/06:19pm 15.7 14.4 11.1 74 2.6 E 9 20 5 11 - - 1.2
20/06:00pm 16.2 15.4 11.6 74 2.6 ENE 7 17 4 9 - - 1.2
20/05:30pm 15.4 13.1 10.4 72 2.8 E 13 22 7 12 - - 1.2
20/05:11pm 16.8 15.5 11.3 70 3.1 E 9 17 5 9 - - 1.2
20/05:00pm 16.8 15.6 11.7 72 2.9 E 9 17 5 9 - - 1.2
20/04:59pm 16.8 15.5 11.3 70 3.1 E 9 17 5 9 - - 1.2
20/04:58pm 16.9 15.8 11.8 72 2.9 ENE 9 17 5 9 - - 1.2
20/04:44pm 16.9 15.9 12.4 75 2.6 ENE 9 17 5 9 - - 1.2
20/04:30pm 16.3 15.2 12.1 76 2.4 ENE 9 19 5 10 - - 1.2
20/04:12pm 15.7 14.6 11.9 78 2.2 E 9 17 5 9 - - 1.2
20/04:00pm 15.8 14.5 11.4 75 2.5 E 9 26 5 14 - - 1.2
20/03:54pm 16.1 14.4 11.1 72 2.8 E 11 26 6 14 - - 1.2
20/03:48pm 16.5 15.7 12.8 79 2.2 ENE 9 19 5 10 - - 1.2
20/03:30pm 16.2 15.5 12.0 76 2.4 E 7 17 4 9 - - 1.2
20/03:00pm 14.1 12.7 12.3 89 1.0 E 11 24 6 13 - - 1.2
20/02:44pm 13.8 12.6 12.7 93 0.6 E 11 20 6 11 - - 1.2
20/02:30pm 13.6 12.7 12.7 94 0.5 ENE 9 20 5 11 - - 1.2
20/02:00pm 13.7 13.1 12.3 91 0.8 ENE 7 15 4 8 - - 0.8
20/01:38pm 13.8 13.2 12.2 90 0.9 ENE 7 13 4 7 - - 0.4
20/01:30pm 13.7 13.2 12.1 90 0.9 E 6 9 3 5 - - 0.4
20/01:14pm 13.6 12.4 11.7 88 1.1 E 9 13 5 7 - - 0.4
20/01:00pm 13.8 13.3 12.7 93 0.6 ENE 7 13 4 7 - - 0.4
20/12:30pm 12.7 11.4 11.3 91 0.8 E 9 17 5 9 - - 0.2
20/12:00pm 12.4 11.6 11.0 91 0.8 ENE 6 15 3 8 - - 0.2
20/11:30am 12.4 11.1 11.1 92 0.7 ENE 9 17 5 9 - - 0.2
20/11:12am 12.2 11.1 10.8 91 0.8 ENE 7 17 4 9 - - 0.2
20/11:00am 12.5 11.2 11.1 91 0.8 ENE 9 17 5 9 - - 0.2
20/10:44am 12.5 11.7 11.6 94 0.5 E 7 13 4 7 - - 0.2
20/10:30am 12.1 11.2 11.3 95 0.4 ENE 7 15 4 8 - - 0.2
20/10:12am 11.9 10.1 11.0 94 0.5 ENE 11 20 6 11 - - 0.2
20/10:05am 12.1 10.8 11.3 95 0.4 ENE 9 20 5 11 - - 0.2
20/10:00am 12.1 10.9 11.5 96 0.3 ENE 9 19 5 10 - - 0.2
20/09:30am 11.3 9.9 10.8 97 0.3 E 9 17 5 9 - - 0.2
20/09:00am 10.6 8.6 10.0 96 0.3 E 11 19 6 10 - - 1.8
20/08:30am 10.4 8.3 9.6 95 0.4 E 11 28 6 15 - - 1.8
20/08:22am 10.4 8.3 9.6 95 0.4 E 11 22 6 12 - - 1.8
20/08:03am 10.4 9.1 9.8 96 0.3 E 7 17 4 9 - - 1.8
20/08:00am 10.4 9.1 9.8 96 0.3 E 7 17 4 9 - - 1.8
20/07:47am 9.9 7.6 9.1 95 0.4 E 11 24 6 13 - - 1.8
20/07:44am 9.7 7.0 8.9 95 0.4 E 13 24 7 13 - - 1.8
20/07:30am 10.0 8.6 9.4 96 0.3 E 7 13 4 7 - - 1.6
20/07:13am 9.7 8.2 9.1 96 0.3 E 7 17 4 9 - - 1.6
20/07:00am 9.4 7.4 8.8 96 0.3 E 9 15 5 8 - - 1.6
20/06:30am 9.1 7.6 8.6 97 0.3 E 6 15 3 8 - - 1.6
20/06:00am 8.8 7.1 8.4 97 0.2 ENE 7 15 4 8 - - 1.6
20/05:53am 8.7 6.6 8.3 97 0.2 ENE 9 17 5 9 - - 1.6
20/05:33am 8.0 6.1 7.4 96 0.3 ENE 7 13 4 7 - - 1.6
20/05:30am 7.8 5.8 7.1 95 0.3 ENE 7 13 4 7 - - 1.6
20/05:00am 7.8 5.8 7.1 95 0.3 ENE 7 11 4 6 - - 1.6
20/04:30am 7.6 5.1 6.7 94 0.4 E 9 13 5 7 - - 1.6
20/04:00am 8.0 5.6 6.8 92 0.6 E 9 17 5 9 - - 1.6
20/03:30am 9.0 6.5 8.1 94 0.5 E 11 19 6 10 - - 1.6
20/03:00am 9.4 6.6 8.5 94 0.5 E 13 22 7 12 - - 1.6
20/02:30am 9.6 7.6 8.8 95 0.4 E 9 19 5 10 - - 1.6
20/02:24am 9.6 7.6 8.8 95 0.4 E 9 17 5 9 - - 1.6
20/02:02am 9.8 7.9 9.0 95 0.4 E 9 19 5 10 - - 1.6
20/02:00am 9.8 7.9 9.0 95 0.4 ESE 9 19 5 10 - - 1.6
20/01:30am 9.9 8.0 9.1 95 0.4 E 9 20 5 11 - - 1.6
20/01:00am 10.0 7.8 9.2 95 0.4 E 11 20 6 11 - - 1.6
20/12:55am 10.1 7.9 9.3 95 0.4 E 11 24 6 13 - - 1.6
20/12:30am 10.3 8.5 9.5 95 0.4 E 9 20 5 11 - - 1.6
20/12:00am 10.4 8.3 9.6 95 0.4 E 11 19 6 10 - - 1.6
 
Date/Time
EDT
Temp
°C
App
Temp
°C
Dew
Point
°C
Rel
Hum
%
Delta-T
°C
Wind Press
QNH
hPa
Press
MSL
hPa
Rain since
9am
mm
Dir  Spd
km/h
Gust
km/h
Spd
kts
Gust
kts
19/11:30pm 10.7 8.7 10.1 96 0.3 E 11 20 6 11 - - 1.6
19/11:00pm 11.0 9.1 10.4 96 0.3 E 11 19 6 10 - - 1.6
19/10:30pm 11.0 9.4 10.2 95 0.4 ENE 9 20 5 11 - - 0.8
19/10:00pm 11.4 9.9 10.6 95 0.4 ENE 9 19 5 10 - - 0.4
19/09:30pm 11.4 9.5 10.5 94 0.5 ENE 11 20 6 11 - - 0.0
19/09:00pm 11.7 10.2 10.6 93 0.6 E 9 17 5 9 - - 0.0
19/08:54pm 11.9 10.1 10.8 93 0.6 E 11 20 6 11 - - 0.0
19/08:30pm 12.1 10.6 10.5 90 0.9 E 9 26 5 14 - - 0.0
19/08:00pm 12.3 10.3 10.2 87 1.1 E 11 22 6 12 - - 0.0
19/07:45pm 12.6 11.3 10.0 84 1.4 E 7 15 4 8 - - 0.0
19/07:30pm 12.8 10.7 9.6 81 1.7 ENE 11 20 6 11 - - 0.0
19/07:00pm 13.9 12.1 9.3 74 2.5 E 9 20 5 11 - - 0.0
19/06:30pm 14.1 11.9 9.3 73 2.6 ENE 11 20 6 11 - - 0.0
19/06:00pm 15.2 13.4 9.6 69 3.1 E 9 19 5 10 - - 0.0
19/05:30pm 15.3 13.6 9.7 69 3.1 E 9 17 5 9 - - 0.0
19/05:00pm 16.6 14.6 8.8 60 4.2 E 9 15 5 8 - - 0.0
19/04:30pm 16.1 14.2 9.1 63 3.8 E 9 15 5 8 - - 0.0
19/04:00pm 16.4 14.0 8.6 60 4.2 E 11 19 6 10 - - 0.0
19/03:30pm 19.1 16.3 8.4 50 5.9 E 13 22 7 12 - - 0.0
19/03:00pm 18.8 16.2 9.3 54 5.3 ENE 13 22 7 12 - - 0.0
19/02:30pm 18.2 15.8 8.7 54 5.2 E 11 28 6 15 - - 0.0
19/02:00pm 18.1 16.1 10.0 59 4.5 E 11 20 6 11 - - 0.0
19/01:30pm 17.7 15.7 8.6 55 5.0 E 9 20 5 11 - - 0.0
19/01:00pm 16.4 14.3 9.8 65 3.7 E 11 22 6 12 - - 0.0
19/12:30pm 16.9 14.6 10.5 66 3.6 ENE 13 20 7 11 - - 0.0
19/12:00pm 16.3 14.0 10.6 69 3.2 E 13 19 7 10 - - 0.0
19/11:31am 15.3 14.1 11.7 79 2.1 ENE 9 22 5 12 - - 0.0
19/11:30am 15.2 14.0 11.6 79 2.0 ENE 9 22 5 12 - - 0.0
19/11:00am 15.4 13.5 11.8 79 2.1 ENE 13 20 7 11 - - 0.0
19/10:30am 12.8 11.3 10.7 87 1.2 E 9 19 5 10 - - 0.0
19/10:00am 13.4 11.9 12.0 91 0.8 ENE 11 20 6 11 - - 0.0
19/09:33am 12.3 10.7 11.5 95 0.4 E 11 22 6 12 - - 0.0
19/09:30am 12.2 11.0 11.6 96 0.3 E 9 20 5 11 - - 0.0
19/09:00am 11.7 10.4 11.2 97 0.3 E 9 19 5 10 - - -
19/08:30am 11.3 9.9 10.8 97 0.3 ENE 9 19 5 10 - - -

Latest Capital City Observations: Canberra | Sydney | Melbourne | Brisbane | Adelaide | Perth | Hobart | Darwin

Other Formats:

Comma delimited format used in spreadsheet applications
http://www.bom.gov.au/fwo/IDN60901/IDN60901.94743.axf

JavaScript Object Notation format (JSON) in row-major order
http://www.bom.gov.au/fwo/IDN60901/IDN60901.94743.json